createdAt,value
2019-01-20T00:01:31.423Z,15.87
2019-01-20T00:04:00.619Z,15.70
2019-01-20T00:06:29.667Z,15.97
2019-01-20T00:08:58.788Z,15.30
2019-01-20T00:11:27.941Z,15.40
2019-01-20T00:13:56.946Z,15.70
2019-01-20T00:16:26.164Z,14.60
2019-01-20T00:18:55.384Z,16.20
2019-01-20T00:21:25.871Z,16.00
2019-01-20T00:23:55.006Z,15.50
2019-01-20T00:26:24.160Z,15.10
2019-01-20T00:28:53.501Z,14.90
2019-01-20T00:31:22.924Z,15.57
2019-01-20T00:33:52.082Z,15.27
2019-01-20T00:36:22.439Z,15.67
2019-01-20T00:38:54.456Z,15.50
2019-01-20T00:41:24.309Z,14.80
2019-01-20T00:43:55.748Z,14.73
2019-01-20T00:46:26.155Z,14.90
2019-01-20T00:48:55.483Z,15.10
2019-01-20T00:51:24.613Z,14.87
2019-01-20T00:53:53.712Z,15.10
2019-01-20T00:56:22.882Z,14.70
2019-01-20T00:58:52.111Z,14.30
2019-01-20T01:01:21.211Z,14.10
2019-01-20T01:03:51.515Z,14.60
2019-01-20T01:06:22.519Z,14.50
2019-01-20T01:08:54.014Z,13.70
2019-01-20T01:11:23.296Z,13.83
2019-01-20T01:13:52.505Z,13.83
2019-01-20T01:16:24.828Z,13.80
2019-01-20T01:18:53.976Z,14.17
2019-01-20T01:21:23.897Z,13.53
2019-01-20T01:23:53.042Z,13.20
2019-01-20T01:26:22.826Z,12.93
2019-01-20T01:28:51.932Z,12.43
2019-01-20T01:31:21.132Z,13.13
2019-01-20T01:33:50.336Z,12.83
2019-01-20T01:36:19.914Z,12.53
2019-01-20T01:38:50.310Z,12.67
2019-01-20T01:41:19.436Z,11.97
2019-01-20T01:43:48.620Z,9.90
2019-01-20T01:46:17.824Z,16.03
2019-01-20T01:48:46.957Z,14.77
2019-01-20T01:51:16.086Z,15.10
2019-01-20T01:53:45.247Z,15.50
2019-01-20T01:56:14.407Z,14.97
2019-01-20T01:58:43.559Z,15.10
2019-01-20T02:01:13.085Z,15.07
2019-01-20T02:03:42.231Z,14.40
2019-01-20T02:06:11.419Z,14.37
2019-01-20T02:08:40.561Z,15.57
2019-01-20T02:11:09.688Z,15.13
2019-01-20T02:13:38.801Z,14.90
2019-01-20T02:16:07.913Z,15.53
2019-01-20T02:18:37.041Z,14.80
2019-01-20T02:21:06.353Z,15.07
2019-01-20T02:23:35.559Z,15.70
2019-01-20T02:26:04.686Z,14.77
2019-01-20T02:28:33.726Z,15.50
2019-01-20T02:31:02.893Z,15.27
2019-01-20T02:33:32.107Z,15.20
2019-01-20T02:36:01.374Z,15.20
2019-01-20T02:38:30.569Z,15.13
2019-01-20T02:40:59.710Z,15.13
2019-01-20T02:43:28.850Z,14.20
2019-01-20T02:45:57.919Z,15.70
2019-01-20T02:48:27.108Z,15.83
2019-01-20T02:50:56.252Z,15.07
2019-01-20T02:53:25.361Z,15.10
2019-01-20T02:55:54.497Z,16.37
2019-01-20T02:58:23.616Z,18.53
2019-01-20T03:00:52.940Z,18.93
2019-01-20T03:03:22.087Z,20.03
2019-01-20T03:05:53.945Z,19.97
2019-01-20T03:08:23.129Z,20.40
2019-01-20T03:10:52.358Z,20.30
2019-01-20T03:13:21.475Z,18.43
2019-01-20T03:15:52.348Z,16.77
2019-01-20T03:18:23.815Z,16.03
2019-01-20T03:20:53.508Z,14.67
2019-01-20T03:23:22.619Z,14.83
2019-01-20T03:25:51.836Z,13.17
2019-01-20T03:28:22.781Z,13.57
2019-01-20T03:30:54.614Z,13.20
2019-01-20T03:33:24.065Z,13.67
2019-01-20T03:35:53.182Z,12.57
2019-01-20T03:38:22.551Z,11.83
2019-01-20T03:40:51.768Z,17.70
2019-01-20T03:43:21.252Z,17.00
2019-01-20T03:45:50.754Z,17.03
2019-01-20T03:48:20.156Z,16.40
2019-01-20T03:50:49.411Z,16.63
2019-01-20T03:53:18.820Z,16.60
2019-01-20T03:55:47.953Z,16.97
2019-01-20T03:58:17.159Z,16.60
2019-01-20T04:00:46.324Z,16.93
2019-01-20T04:03:15.602Z,16.07
2019-01-20T04:05:47.365Z,16.37
2019-01-20T04:08:16.571Z,16.43
2019-01-20T04:10:45.755Z,17.27
2019-01-20T04:13:14.912Z,16.77
2019-01-20T04:15:44.091Z,16.93
2019-01-20T04:18:13.241Z,16.60
2019-01-20T04:20:42.444Z,17.17
2019-01-20T04:23:11.564Z,16.53
2019-01-20T04:25:40.736Z,16.77
2019-01-20T04:28:09.865Z,17.20
2019-01-20T04:30:38.979Z,16.47
2019-01-20T04:33:08.121Z,15.83
2019-01-20T04:35:39.638Z,16.67
2019-01-20T04:38:08.845Z,17.13
2019-01-20T04:40:37.933Z,17.70
2019-01-20T04:43:07.203Z,17.67
2019-01-20T04:45:37.478Z,17.83
2019-01-20T04:48:07.064Z,17.10
2019-01-20T04:50:36.270Z,16.27
2019-01-20T04:53:05.379Z,16.40
2019-01-20T04:55:34.472Z,16.93
2019-01-20T04:58:03.682Z,17.23
2019-01-20T05:00:32.846Z,16.20
2019-01-20T05:03:02.094Z,17.30
2019-01-20T05:05:31.238Z,16.53
2019-01-20T05:08:00.617Z,15.97
2019-01-20T05:10:29.768Z,16.53
2019-01-20T05:12:58.889Z,16.70
2019-01-20T05:15:29.676Z,17.00
2019-01-20T05:17:58.821Z,15.03
2019-01-20T05:20:28.015Z,15.63
2019-01-20T05:22:57.161Z,15.43
2019-01-20T05:25:26.456Z,14.23
2019-01-20T05:27:55.591Z,13.57
2019-01-20T05:30:26.541Z,18.07
2019-01-20T05:32:55.692Z,20.07
2019-01-20T05:35:24.839Z,18.93
2019-01-20T05:37:53.942Z,18.53
2019-01-20T05:40:24.224Z,17.97
2019-01-20T05:42:53.444Z,17.67
2019-01-20T05:45:24.414Z,18.17
2019-01-20T05:47:53.503Z,19.03
2019-01-20T05:50:22.653Z,16.93
2019-01-20T05:52:51.869Z,17.77
2019-01-20T05:55:21.231Z,17.73
2019-01-20T05:57:51.911Z,17.70
2019-01-20T06:00:26.313Z,18.00
2019-01-20T06:02:55.443Z,18.03
2019-01-20T06:05:24.587Z,18.77
2019-01-20T06:07:53.741Z,18.27
2019-01-20T06:10:22.948Z,18.00
2019-01-20T06:12:54.227Z,18.53
2019-01-20T06:15:23.440Z,17.47
2019-01-20T06:17:52.641Z,18.33
2019-01-20T06:20:21.814Z,17.47
2019-01-20T06:22:51.016Z,18.30
2019-01-20T06:25:20.227Z,18.83
2019-01-20T06:27:49.427Z,17.43
2019-01-20T06:30:26.980Z,16.90
2019-01-20T06:32:56.573Z,18.23
2019-01-20T06:35:26.305Z,17.83
2019-01-20T06:37:55.516Z,18.40
2019-01-20T06:40:25.448Z,16.67
2019-01-20T06:43:01.255Z,16.90
2019-01-20T06:45:25.719Z,17.40
2019-01-20T06:47:54.897Z,18.00
2019-01-20T06:50:24.376Z,16.57
2019-01-20T06:52:53.529Z,17.37
2019-01-20T06:55:22.820Z,17.03
2019-01-20T06:57:51.982Z,16.13
2019-01-20T07:00:23.449Z,16.20
2019-01-20T07:02:52.736Z,15.53
2019-01-20T07:05:21.943Z,15.63
2019-01-20T07:07:51.376Z,14.53
2019-01-20T07:10:20.819Z,15.13
2019-01-20T07:12:53.114Z,14.73
2019-01-20T07:15:23.857Z,14.93
2019-01-20T07:17:53.253Z,12.87
2019-01-20T07:20:22.405Z,11.10
2019-01-20T07:22:51.719Z,15.97
2019-01-20T07:25:21.428Z,18.70
2019-01-20T07:27:50.636Z,17.67
2019-01-20T07:30:28.544Z,17.00
2019-01-20T07:32:57.954Z,16.73
2019-01-20T07:35:27.910Z,17.30
2019-01-20T07:37:57.061Z,16.87
2019-01-20T07:40:27.327Z,16.87
2019-01-20T07:42:56.431Z,16.97
2019-01-20T07:45:25.816Z,16.50
2019-01-20T07:47:54.924Z,16.37
2019-01-20T07:50:25.903Z,16.77
2019-01-20T07:52:55.130Z,16.73
2019-01-20T07:55:25.447Z,17.20
2019-01-20T07:57:55.601Z,16.70
2019-01-20T08:00:25.745Z,17.43
2019-01-20T08:02:55.009Z,17.97
2019-01-20T08:05:24.218Z,18.23
2019-01-20T08:07:53.369Z,17.73
2019-01-20T08:10:27.367Z,17.57
2019-01-20T08:12:56.528Z,16.07
2019-01-20T08:15:25.689Z,17.17
2019-01-20T08:17:55.573Z,16.07
2019-01-20T08:20:26.246Z,16.47
2019-01-20T08:22:55.850Z,16.43
2019-01-20T08:25:25.393Z,16.77
2019-01-20T08:27:54.793Z,16.03
2019-01-20T08:30:26.181Z,16.43
2019-01-20T08:32:55.371Z,16.43
2019-01-20T08:35:28.316Z,15.57
2019-01-20T08:37:57.458Z,15.77
2019-01-20T08:40:30.899Z,16.33
2019-01-20T08:43:00.252Z,15.53
2019-01-20T08:46:00.458Z,16.27
2019-01-20T08:48:29.682Z,15.93
2019-01-20T08:50:59.029Z,15.57
2019-01-20T08:53:28.508Z,14.90
2019-01-20T08:55:57.706Z,14.70
2019-01-20T08:58:27.138Z,15.57
2019-01-20T09:00:56.263Z,14.20
2019-01-20T09:03:25.644Z,14.37
2019-01-20T09:05:54.829Z,13.50
2019-01-20T09:08:26.029Z,14.20
2019-01-20T09:10:55.146Z,14.43
2019-01-20T09:13:24.468Z,13.70
2019-01-20T09:15:56.479Z,13.33
2019-01-20T09:18:26.169Z,13.47
2019-01-20T09:20:55.327Z,12.30
2019-01-20T09:23:24.789Z,12.60
2019-01-20T09:25:54.071Z,12.47
2019-01-20T09:28:24.631Z,12.23
2019-01-20T09:30:55.199Z,13.97
2019-01-20T09:33:25.047Z,13.90
2019-01-20T09:35:54.175Z,12.13
2019-01-20T09:38:23.873Z,13.57
2019-01-20T09:40:52.958Z,12.60
2019-01-20T09:43:23.602Z,12.43
2019-01-20T09:45:53.374Z,12.47
2019-01-20T09:48:24.900Z,12.13
2019-01-20T09:50:54.060Z,12.33
2019-01-20T09:53:25.979Z,11.67
2019-01-20T09:55:56.640Z,11.77
2019-01-20T09:58:26.908Z,11.23
2019-01-20T10:00:56.026Z,10.57
2019-01-20T10:03:27.638Z,11.83
2019-01-20T10:05:58.058Z,11.53
2019-01-20T10:08:27.506Z,11.47
2019-01-20T10:10:56.624Z,11.57
2019-01-20T10:13:25.956Z,10.97
2019-01-20T10:15:55.084Z,11.47
2019-01-20T10:18:24.442Z,10.67
2019-01-20T10:20:53.659Z,10.67
2019-01-20T10:23:23.111Z,10.97
2019-01-20T10:25:52.470Z,10.63
2019-01-20T10:28:24.790Z,10.87
2019-01-20T10:30:53.934Z,10.83
2019-01-20T10:33:24.131Z,11.53
2019-01-20T10:35:58.911Z,10.37
2019-01-20T10:38:28.189Z,10.63
2019-01-20T10:40:57.317Z,10.20
2019-01-20T10:43:26.919Z,10.37
2019-01-20T10:45:56.035Z,10.70
2019-01-20T10:48:28.234Z,10.53
2019-01-20T10:50:59.381Z,11.17
2019-01-20T10:53:28.561Z,10.57
2019-01-20T10:55:57.707Z,10.97
2019-01-20T10:58:26.830Z,10.47
2019-01-20T11:00:55.949Z,10.83
2019-01-20T11:03:27.150Z,10.30
2019-01-20T11:05:56.301Z,9.93
2019-01-20T11:08:27.712Z,10.00
2019-01-20T11:10:56.850Z,10.80
2019-01-20T11:13:26.258Z,9.73
2019-01-20T11:15:57.191Z,9.47
2019-01-20T11:18:27.078Z,9.57
2019-01-20T11:20:56.254Z,9.10
2019-01-20T11:23:25.700Z,9.23
2019-01-20T11:25:54.830Z,9.23
2019-01-20T11:28:24.448Z,9.00
2019-01-20T11:30:53.951Z,10.00
2019-01-20T11:33:25.379Z,9.30
2019-01-20T11:35:54.511Z,9.03
2019-01-20T11:38:23.975Z,9.23
2019-01-20T11:40:53.343Z,9.60
2019-01-20T11:43:23.537Z,8.40
2019-01-20T11:45:52.715Z,8.63
2019-01-20T11:48:25.368Z,8.37
2019-01-20T11:50:54.557Z,9.10
2019-01-20T11:53:23.749Z,8.70
2019-01-20T11:55:53.540Z,8.47
2019-01-20T11:58:23.055Z,8.40
2019-01-20T12:00:52.235Z,8.60
2019-01-20T12:03:23.760Z,8.27
2019-01-20T12:05:52.916Z,8.37
2019-01-20T12:08:30.563Z,8.27
2019-01-20T12:10:56.286Z,8.00
2019-01-20T12:13:28.073Z,7.87
2019-01-20T12:15:57.191Z,7.73
2019-01-20T12:18:27.842Z,7.50
2019-01-20T12:20:56.939Z,7.70
2019-01-20T12:23:26.648Z,7.47
2019-01-20T12:25:56.063Z,7.30
2019-01-20T12:28:25.510Z,7.63
2019-01-20T12:30:54.622Z,8.00
2019-01-20T12:33:26.116Z,7.47
2019-01-20T12:35:55.317Z,7.73
2019-01-20T12:38:24.954Z,7.70
2019-01-20T12:40:54.058Z,7.40
2019-01-20T12:43:25.217Z,7.53
2019-01-20T12:45:54.362Z,7.23
2019-01-20T12:48:23.568Z,7.30
2019-01-20T12:50:52.692Z,6.90
2019-01-20T12:53:21.863Z,7.57
2019-01-20T12:55:50.964Z,6.80
2019-01-20T12:58:20.355Z,7.07
2019-01-20T13:00:49.492Z,6.97
2019-01-20T13:03:18.865Z,6.43
2019-01-20T13:05:48.037Z,5.87
2019-01-20T13:08:17.141Z,6.03
2019-01-20T13:10:46.525Z,5.70
2019-01-20T13:13:16.000Z,5.70
2019-01-20T13:15:45.052Z,5.90
2019-01-20T13:18:14.204Z,5.83
2019-01-20T13:20:43.368Z,5.23
2019-01-20T13:23:12.543Z,5.70
2019-01-20T13:25:42.944Z,5.87
2019-01-20T13:28:12.064Z,6.20
2019-01-20T13:30:41.215Z,5.60
2019-01-20T13:33:10.951Z,4.97
2019-01-20T13:35:40.059Z,4.37
2019-01-20T13:38:14.146Z,4.40
2019-01-20T13:40:49.391Z,4.50
2019-01-20T13:43:19.298Z,4.40
2019-01-20T13:45:48.450Z,4.60
2019-01-20T13:48:17.661Z,5.00
2019-01-20T13:50:46.808Z,4.20
2019-01-20T13:53:18.200Z,4.43
2019-01-20T13:55:47.687Z,4.90
2019-01-20T13:58:17.226Z,5.20
2019-01-20T14:00:46.422Z,4.40
2019-01-20T14:03:15.536Z,4.73
2019-01-20T14:05:45.003Z,4.43
2019-01-20T14:08:14.434Z,4.67
2019-01-20T14:10:43.592Z,4.53
2019-01-20T14:13:12.696Z,4.40
2019-01-20T14:15:41.830Z,4.53
2019-01-20T14:18:15.161Z,4.90
2019-01-20T14:20:44.420Z,4.80
2019-01-20T14:23:13.812Z,4.73
2019-01-20T14:25:42.953Z,5.00
2019-01-20T14:28:12.115Z,5.20
2019-01-20T14:30:41.877Z,5.00
2019-01-20T14:33:11.569Z,5.10
2019-01-20T14:35:43.324Z,5.07
2019-01-20T14:38:16.395Z,5.47
2019-01-20T14:40:45.810Z,4.73
2019-01-20T14:43:14.933Z,5.17
2019-01-20T14:45:44.567Z,5.47
2019-01-20T14:48:13.683Z,5.53
2019-01-20T14:50:42.819Z,5.30
2019-01-20T14:53:12.351Z,5.40
2019-01-20T14:55:41.504Z,5.10
2019-01-20T14:58:10.602Z,5.30
2019-01-20T15:00:41.521Z,5.70
2019-01-20T15:03:11.240Z,5.70
2019-01-20T15:05:40.356Z,5.50
2019-01-20T15:08:10.878Z,5.73
2019-01-20T15:10:40.004Z,5.33
2019-01-20T15:13:11.190Z,5.93
2019-01-20T15:15:41.056Z,5.67
2019-01-20T15:18:10.779Z,5.77
2019-01-20T15:20:40.829Z,5.53
2019-01-20T15:23:10.051Z,6.17
2019-01-20T15:25:39.184Z,5.80
2019-01-20T15:28:11.038Z,5.60
2019-01-20T15:30:40.411Z,5.83
2019-01-20T15:33:09.580Z,6.37
2019-01-20T15:35:38.749Z,6.30
2019-01-20T15:38:08.051Z,5.90
2019-01-20T15:40:37.720Z,5.83
2019-01-20T15:43:06.853Z,6.33
2019-01-20T15:45:35.963Z,6.20
2019-01-20T15:48:05.335Z,6.17
2019-01-20T15:50:34.483Z,6.03
2019-01-20T15:53:03.626Z,6.13
2019-01-20T15:55:33.879Z,6.60
2019-01-20T15:58:03.012Z,6.80
2019-01-20T16:00:32.606Z,6.67
2019-01-20T16:03:04.176Z,6.87
2019-01-20T16:05:33.584Z,6.50
2019-01-20T16:08:03.734Z,6.90
2019-01-20T16:10:32.864Z,6.67
2019-01-20T16:13:02.017Z,6.83
2019-01-20T16:15:33.437Z,6.90
2019-01-20T16:18:02.549Z,6.70
2019-01-20T16:20:32.282Z,6.77
2019-01-20T16:23:02.390Z,6.87
2019-01-20T16:25:35.288Z,6.70
2019-01-20T16:28:04.827Z,6.90
2019-01-20T16:30:35.960Z,6.50
2019-01-20T16:33:05.386Z,7.27
2019-01-20T16:35:34.536Z,7.20
2019-01-20T16:38:04.728Z,6.90
2019-01-20T16:40:33.885Z,7.13
2019-01-20T16:43:03.039Z,7.40
2019-01-20T16:45:43.720Z,7.03
2019-01-20T16:48:13.112Z,7.03
2019-01-20T16:50:44.409Z,6.77
2019-01-20T16:53:13.905Z,7.80
2019-01-20T16:55:44.101Z,8.27
2019-01-20T16:58:13.909Z,8.03
2019-01-20T17:00:44.560Z,8.67
2019-01-20T17:03:13.889Z,7.87
2019-01-20T17:05:43.073Z,8.17
2019-01-20T17:08:15.091Z,7.97
2019-01-20T17:10:46.089Z,9.00
2019-01-20T17:13:15.253Z,8.07
2019-01-20T17:15:46.042Z,11.60
2019-01-20T17:18:15.935Z,9.50
2019-01-20T17:20:45.164Z,12.23
2019-01-20T17:23:14.409Z,11.40
2019-01-20T17:25:43.525Z,9.70
2019-01-20T17:28:12.992Z,9.57
2019-01-20T17:30:46.078Z,7.87
2019-01-20T17:33:16.055Z,8.63
2019-01-20T17:35:47.407Z,9.10
2019-01-20T17:38:18.093Z,9.07
2019-01-20T17:40:47.722Z,8.50
2019-01-20T17:43:18.038Z,9.43
2019-01-20T17:45:49.955Z,9.57
2019-01-20T17:48:18.905Z,9.10
2019-01-20T17:50:48.178Z,10.17
2019-01-20T17:53:18.356Z,7.87
2019-01-20T17:55:47.972Z,7.47
2019-01-20T17:58:18.313Z,6.77
2019-01-20T18:00:53.856Z,6.63
2019-01-20T18:03:24.365Z,8.80
2019-01-20T18:05:55.150Z,9.67
2019-01-20T18:08:24.310Z,8.83
2019-01-20T18:10:53.432Z,8.37
2019-01-20T18:13:22.877Z,9.07
2019-01-20T18:15:54.696Z,9.50
2019-01-20T18:18:23.184Z,10.23
2019-01-20T18:20:52.363Z,11.17
2019-01-20T18:23:23.015Z,10.00
2019-01-20T18:25:52.205Z,10.17
2019-01-20T18:28:21.608Z,9.83
2019-01-20T18:30:50.833Z,10.20
2019-01-20T18:33:20.674Z,10.13
2019-01-20T18:35:50.184Z,10.10
2019-01-20T18:38:19.331Z,9.93
2019-01-20T18:40:48.571Z,9.90
2019-01-20T18:43:22.116Z,12.93
2019-01-20T18:45:48.961Z,9.47
2019-01-20T18:48:18.075Z,9.37
2019-01-20T18:50:47.247Z,9.63
2019-01-20T18:53:16.366Z,10.10
2019-01-20T18:55:45.527Z,9.30
2019-01-20T18:58:14.776Z,10.80
2019-01-20T19:00:47.776Z,9.63
2019-01-20T19:03:16.970Z,10.13
2019-01-20T19:05:46.200Z,10.23
2019-01-20T19:08:17.121Z,10.57
2019-01-20T19:10:46.862Z,10.97
2019-01-20T19:13:16.084Z,11.60
2019-01-20T19:15:45.192Z,10.63
2019-01-20T19:18:18.883Z,11.00
2019-01-20T19:20:46.570Z,10.37
2019-01-20T19:23:17.166Z,10.57
2019-01-20T19:25:46.255Z,10.83
2019-01-20T19:28:15.444Z,10.90
2019-01-20T19:30:44.602Z,11.10
2019-01-20T19:33:13.753Z,11.63
2019-01-20T19:35:42.903Z,12.20
2019-01-20T19:38:12.033Z,11.73
2019-01-20T19:40:41.147Z,11.40
2019-01-20T19:43:10.327Z,11.80
2019-01-20T19:45:39.500Z,12.30
2019-01-20T19:48:13.123Z,11.43
2019-01-20T19:50:39.537Z,12.07
2019-01-20T19:53:08.958Z,12.40
2019-01-20T19:55:38.131Z,13.47
2019-01-20T19:58:07.273Z,13.03
2019-01-20T20:00:36.430Z,14.70
2019-01-20T20:03:06.354Z,13.60
2019-01-20T20:05:35.485Z,10.50
2019-01-20T20:08:04.953Z,13.77
2019-01-20T20:10:34.071Z,15.33
2019-01-20T20:13:03.199Z,14.93
2019-01-20T20:15:32.362Z,15.87
2019-01-20T20:18:01.494Z,15.43
2019-01-20T20:20:30.614Z,14.40
2019-01-20T20:22:59.760Z,15.23
2019-01-20T20:25:28.952Z,15.27
2019-01-20T20:27:58.084Z,16.53
2019-01-20T20:30:29.552Z,18.17
2019-01-20T20:32:58.818Z,16.20
2019-01-20T20:35:28.014Z,15.80
2019-01-20T20:37:57.104Z,16.30
2019-01-20T20:40:26.220Z,16.00
2019-01-20T20:42:55.399Z,16.57
2019-01-20T20:45:25.050Z,16.33
2019-01-20T20:47:54.232Z,15.43
2019-01-20T20:50:23.387Z,16.27
2019-01-20T20:52:54.362Z,17.30
2019-01-20T20:55:23.520Z,16.30
2019-01-20T20:57:52.695Z,16.97
2019-01-20T21:00:33.492Z,16.47
2019-01-20T21:03:04.611Z,16.67
2019-01-20T21:05:33.746Z,16.77
2019-01-20T21:08:03.171Z,18.87
2019-01-20T21:10:32.818Z,17.80
2019-01-20T21:13:02.104Z,19.63
2019-01-20T21:15:31.262Z,22.27
2019-01-20T21:18:06.415Z,24.87
2019-01-20T21:20:36.956Z,22.47
2019-01-20T21:23:12.095Z,19.63
2019-01-20T21:25:37.299Z,18.87
2019-01-20T21:28:06.529Z,17.83
2019-01-20T21:30:35.636Z,19.30
2019-01-20T21:33:05.156Z,20.53
2019-01-20T21:35:34.388Z,20.00
2019-01-20T21:38:06.912Z,21.47
2019-01-20T21:40:35.440Z,20.33
2019-01-20T21:43:04.616Z,22.13
2019-01-20T21:45:33.762Z,20.47
2019-01-20T21:48:02.927Z,20.63
2019-01-20T21:50:32.352Z,20.40
2019-01-20T21:53:01.482Z,21.20
2019-01-20T21:55:30.801Z,20.10
2019-01-20T21:57:59.907Z,20.60
2019-01-20T22:00:29.459Z,18.80
2019-01-20T22:02:58.580Z,19.30
2019-01-20T22:05:27.984Z,20.17
2019-01-20T22:07:57.142Z,19.10
2019-01-20T22:10:26.287Z,17.60
2019-01-20T22:12:55.438Z,24.10
2019-01-20T22:15:25.379Z,23.30
2019-01-20T22:17:54.597Z,25.27
2019-01-20T22:20:24.959Z,23.13
2019-01-20T22:22:54.432Z,22.90
2019-01-20T22:25:24.623Z,22.97
2019-01-20T22:27:54.068Z,25.17
2019-01-20T22:30:27.721Z,26.50
2019-01-20T22:32:56.866Z,23.60
2019-01-20T22:35:28.581Z,24.77
2019-01-20T22:37:57.687Z,24.87
2019-01-20T22:40:26.843Z,26.83
2019-01-20T22:42:56.000Z,25.13
2019-01-20T22:45:26.818Z,25.87
2019-01-20T22:47:55.938Z,26.23
2019-01-20T22:50:25.669Z,24.80
2019-01-20T22:52:56.557Z,25.60
2019-01-20T22:55:25.847Z,24.50
2019-01-20T22:57:55.028Z,24.97
2019-01-20T23:00:48.985Z,24.80
2019-01-20T23:03:18.209Z,24.53
2019-01-20T23:05:48.478Z,22.23
2019-01-20T23:08:17.634Z,23.13
2019-01-20T23:10:46.834Z,23.10
2019-01-20T23:13:16.031Z,21.33
2019-01-20T23:15:45.253Z,22.27
2019-01-20T23:18:14.843Z,25.63
2019-01-20T23:20:43.990Z,22.03
2019-01-20T23:23:13.134Z,23.10
2019-01-20T23:25:42.271Z,24.27
2019-01-20T23:28:11.667Z,23.43
2019-01-20T23:30:40.807Z,27.03
2019-01-20T23:33:10.071Z,23.37
2019-01-20T23:35:39.187Z,23.10
2019-01-20T23:38:08.361Z,27.03
2019-01-20T23:40:37.488Z,24.67
2019-01-20T23:43:06.655Z,25.73
2019-01-20T23:45:36.077Z,24.57
2019-01-20T23:48:07.089Z,22.13
2019-01-20T23:50:36.236Z,25.57
2019-01-20T23:53:05.699Z,23.87
2019-01-20T23:55:35.443Z,21.67
2019-01-20T23:58:04.957Z,23.77
